createdAt,value
2018-07-04T00:00:10.005Z,39.14
2018-07-04T00:01:09.702Z,39.24
2018-07-04T00:02:09.739Z,39.24
2018-07-04T00:03:09.792Z,39.14
2018-07-04T00:04:09.806Z,39.14
2018-07-04T00:05:09.843Z,39.14
2018-07-04T00:06:09.902Z,38.95
2018-07-04T00:07:10.240Z,39.24
2018-07-04T00:08:09.950Z,39.43
2018-07-04T00:09:09.982Z,39.43
2018-07-04T00:10:10.012Z,39.14
2018-07-04T00:11:10.045Z,39.04
2018-07-04T00:12:10.115Z,39.04
2018-07-04T00:13:10.142Z,39.14
2018-07-04T00:14:10.483Z,38.75
2018-07-04T00:15:10.233Z,38.85
2018-07-04T00:16:10.236Z,38.37
2018-07-04T00:17:10.301Z,38.17
2018-07-04T00:18:10.305Z,39.04
2018-07-04T00:19:10.334Z,38.95
2018-07-04T00:20:10.380Z,39.03
2018-07-04T00:21:10.690Z,38.34
2018-07-04T00:22:10.425Z,38.07
2018-07-04T00:23:10.469Z,37.78
2018-07-04T00:24:10.494Z,37.49
2018-07-04T00:25:10.536Z,37.18
2018-07-04T00:26:10.591Z,37.57
2018-07-04T00:27:10.639Z,36.99
2018-07-04T00:28:11.012Z,37.37
2018-07-04T00:29:10.668Z,37.08
2018-07-04T00:30:10.699Z,36.60
2018-07-04T00:31:10.736Z,36.60
2018-07-04T00:32:10.767Z,36.69
2018-07-04T00:33:10.852Z,36.89
2018-07-04T00:34:10.895Z,36.79
2018-07-04T00:35:11.172Z,36.79
2018-07-04T00:36:10.925Z,36.60
2018-07-04T00:37:10.940Z,36.79
2018-07-04T00:38:10.976Z,36.99
2018-07-04T00:39:11.022Z,36.69
2018-07-04T00:40:11.046Z,36.69
2018-07-04T00:41:11.079Z,36.69
2018-07-04T00:42:11.408Z,36.89
2018-07-04T00:43:11.143Z,36.99
2018-07-04T00:44:11.181Z,36.99
2018-07-04T00:45:11.212Z,37.66
2018-07-04T00:46:11.253Z,37.66
2018-07-04T00:47:11.369Z,37.57
2018-07-04T00:48:11.617Z,37.57
2018-07-04T00:49:11.351Z,37.86
2018-07-04T00:50:11.395Z,38.06
2018-07-04T00:51:11.425Z,38.44
2018-07-04T00:52:11.452Z,38.54
2018-07-04T00:53:11.486Z,39.12
2018-07-04T00:54:11.829Z,38.44
2018-07-04T00:55:11.555Z,38.34
2018-07-04T00:56:11.641Z,38.15
2018-07-04T00:57:11.644Z,38.06
2018-07-04T00:58:11.694Z,38.25
2018-07-04T00:59:11.697Z,38.15
2018-07-04T01:00:11.985Z,38.06
2018-07-04T01:01:11.809Z,38.25
2018-07-04T01:02:11.792Z,38.34
2018-07-04T01:03:11.827Z,38.54
2018-07-04T01:04:11.878Z,38.25
2018-07-04T01:05:11.906Z,38.44
2018-07-04T01:06:12.228Z,38.25
2018-07-04T01:07:11.979Z,38.25
2018-07-04T01:08:12.015Z,38.06
2018-07-04T01:09:12.037Z,38.44
2018-07-04T01:10:12.121Z,38.34
2018-07-04T01:11:12.172Z,38.54
2018-07-04T01:12:12.460Z,38.23
2018-07-04T01:13:12.182Z,38.34
2018-07-04T01:14:12.214Z,38.15
2018-07-04T01:15:12.240Z,37.94
2018-07-04T01:16:12.279Z,38.13
2018-07-04T01:17:12.304Z,38.13
2018-07-04T01:18:12.589Z,37.84
2018-07-04T01:19:12.379Z,37.94
2018-07-04T01:20:12.405Z,38.04
2018-07-04T01:21:12.444Z,38.04
2018-07-04T01:22:12.538Z,37.84
2018-07-04T01:23:12.506Z,37.94
2018-07-04T01:24:12.793Z,38.04
2018-07-04T01:25:12.585Z,38.04
2018-07-04T01:26:12.612Z,37.94
2018-07-04T01:27:12.680Z,38.13
2018-07-04T01:28:12.685Z,38.04
2018-07-04T01:29:12.715Z,38.04
2018-07-04T01:30:13.101Z,38.32
2018-07-04T01:31:12.778Z,39.11
2018-07-04T01:32:12.813Z,38.91
2018-07-04T01:33:12.947Z,39.01
2018-07-04T01:34:12.895Z,38.81
2018-07-04T01:35:12.949Z,38.91
2018-07-04T01:36:13.297Z,38.62
2018-07-04T01:37:12.985Z,39.01
2018-07-04T01:38:13.020Z,38.62
2018-07-04T01:39:13.052Z,38.62
2018-07-04T01:40:13.083Z,38.62
2018-07-04T01:41:13.153Z,38.52
2018-07-04T01:42:13.454Z,39.01
2018-07-04T01:43:13.205Z,38.50
2018-07-04T01:44:13.228Z,38.79
2018-07-04T01:45:13.257Z,38.70
2018-07-04T01:46:13.289Z,38.89
2018-07-04T01:47:13.352Z,38.99
2018-07-04T01:48:13.624Z,38.89
2018-07-04T01:49:13.589Z,38.79
2018-07-04T01:50:13.445Z,38.79
2018-07-04T01:51:13.461Z,38.99
2018-07-04T01:52:13.491Z,39.08
2018-07-04T01:53:13.581Z,38.89
2018-07-04T01:54:13.809Z,38.99
2018-07-04T01:55:13.596Z,38.99
2018-07-04T01:56:13.647Z,38.99
2018-07-04T01:57:13.680Z,38.89
2018-07-04T01:58:13.694Z,39.18
2018-07-04T01:59:13.732Z,39.76
2018-07-04T02:00:14.130Z,40.44
2018-07-04T02:01:13.801Z,41.02
2018-07-04T02:02:13.831Z,40.73
2018-07-04T02:03:13.869Z,41.02
2018-07-04T02:04:13.900Z,41.02
2018-07-04T02:05:13.939Z,41.12
2018-07-04T02:06:14.022Z,41.22
2018-07-04T02:07:14.256Z,41.22
2018-07-04T02:08:14.030Z,41.12
2018-07-04T02:09:14.070Z,41.41
2018-07-04T02:10:14.109Z,41.31
2018-07-04T02:11:14.152Z,41.41
2018-07-04T02:12:14.164Z,41.12
2018-07-04T02:13:14.226Z,41.61
2018-07-04T02:14:14.540Z,41.41
2018-07-04T02:15:14.322Z,41.41
2018-07-04T02:16:14.301Z,41.51
2018-07-04T02:17:14.335Z,41.41
2018-07-04T02:18:14.368Z,41.51
2018-07-04T02:19:14.443Z,41.61
2018-07-04T02:20:14.461Z,41.51
2018-07-04T02:21:14.856Z,41.31
2018-07-04T02:22:14.529Z,41.53
2018-07-04T02:23:14.537Z,41.53
2018-07-04T02:24:14.572Z,41.53
2018-07-04T02:25:14.604Z,41.63
2018-07-04T02:26:14.641Z,41.63
2018-07-04T02:27:14.689Z,41.63
2018-07-04T02:28:14.963Z,41.43
2018-07-04T02:29:14.740Z,41.33
2018-07-04T02:30:14.792Z,41.24
2018-07-04T02:31:14.812Z,41.36
2018-07-04T02:32:14.935Z,41.16
2018-07-04T02:33:14.910Z,41.33
2018-07-04T02:34:14.910Z,41.06
2018-07-04T02:35:15.258Z,41.16
2018-07-04T02:36:14.981Z,41.06
2018-07-04T02:37:15.030Z,40.97
2018-07-04T02:38:15.045Z,40.97
2018-07-04T02:39:15.089Z,41.06
2018-07-04T02:40:15.129Z,40.87
2018-07-04T02:41:15.158Z,40.77
2018-07-04T02:42:15.486Z,40.58
2018-07-04T02:43:15.222Z,41.06
2018-07-04T02:44:15.252Z,40.87
2018-07-04T02:45:15.340Z,41.06
2018-07-04T02:46:15.321Z,40.97
2018-07-04T02:47:15.456Z,40.87
2018-07-04T02:48:15.390Z,40.77
2018-07-04T02:50:15.760Z,40.89
2018-07-04T02:51:15.491Z,40.87
2018-07-04T02:52:15.540Z,40.87
2018-07-04T02:53:15.563Z,40.79
2018-07-04T02:54:15.610Z,40.79
2018-07-04T02:55:15.633Z,40.79
2018-07-04T02:56:15.668Z,40.77
2018-07-04T02:57:15.955Z,40.69
2018-07-04T02:58:15.733Z,40.79
2018-07-04T02:59:15.764Z,40.89
2018-07-04T03:00:15.856Z,40.69
2018-07-04T03:01:15.851Z,40.69
2018-07-04T03:02:15.868Z,40.60
2018-07-04T03:03:15.902Z,40.69
2018-07-04T03:04:16.246Z,40.50
2018-07-04T03:05:15.983Z,40.41
2018-07-04T03:06:16.077Z,40.41
2018-07-04T03:07:16.048Z,40.41
2018-07-04T03:08:16.085Z,40.69
2018-07-04T03:09:16.122Z,40.50
2018-07-04T03:10:16.144Z,40.50
2018-07-04T03:11:16.437Z,40.50
2018-07-04T03:12:16.216Z,40.50
2018-07-04T03:13:16.283Z,40.50
2018-07-04T03:14:16.290Z,40.50
2018-07-04T03:15:16.316Z,40.50
2018-07-04T03:16:16.347Z,40.50
2018-07-04T03:17:16.397Z,40.50
2018-07-04T03:18:16.670Z,40.50
2018-07-04T03:19:16.453Z,40.50
2018-07-04T03:20:16.594Z,40.69
2018-07-04T03:21:16.593Z,40.69
2018-07-04T03:22:16.557Z,40.60
2018-07-04T03:23:16.592Z,40.50
2018-07-04T03:24:16.631Z,40.60
2018-07-04T03:25:17.017Z,40.69
2018-07-04T03:26:16.717Z,40.69
2018-07-04T03:27:16.727Z,40.52
2018-07-04T03:28:16.770Z,40.89
2018-07-04T03:29:16.802Z,40.60
2018-07-04T03:30:16.856Z,40.81
2018-07-04T03:31:17.141Z,40.79
2018-07-04T03:32:16.905Z,40.81
2018-07-04T03:33:16.946Z,40.72
2018-07-04T03:34:16.976Z,40.81
2018-07-04T03:35:17.063Z,40.81
2018-07-04T03:36:17.040Z,40.81
2018-07-04T03:37:17.413Z,40.81
2018-07-04T03:38:17.108Z,40.91
2018-07-04T03:39:17.150Z,40.72
2018-07-04T03:40:17.178Z,40.62
2018-07-04T03:41:17.243Z,40.81
2018-07-04T03:42:17.245Z,40.72
2018-07-04T03:43:18.001Z,40.81
2018-07-04T03:44:17.321Z,40.79
2018-07-04T03:45:17.354Z,40.91
2018-07-04T03:46:17.386Z,40.81
2018-07-04T03:47:17.466Z,40.79
2018-07-04T03:48:17.459Z,40.81
2018-07-04T03:49:17.740Z,40.69
2018-07-04T03:50:17.525Z,40.69
2018-07-04T03:51:17.562Z,40.69
2018-07-04T03:52:17.595Z,40.81
2018-07-04T03:53:17.637Z,40.72
2018-07-04T03:54:17.659Z,40.72
2018-07-04T03:55:17.947Z,40.62
2018-07-04T03:56:17.733Z,40.81
2018-07-04T03:57:17.823Z,40.81
2018-07-04T03:58:17.812Z,40.72
2018-07-04T03:59:17.854Z,40.72
2018-07-04T04:00:17.879Z,40.72
2018-07-04T04:01:18.256Z,40.81
2018-07-04T04:02:17.937Z,40.72
2018-07-04T04:03:17.989Z,40.91
2018-07-04T04:04:18.010Z,40.81
2018-07-04T04:05:18.057Z,40.81
2018-07-04T04:06:18.078Z,40.72
2018-07-04T04:07:18.487Z,40.72
2018-07-04T04:08:18.144Z,40.72
2018-07-04T04:09:18.178Z,40.72
2018-07-04T04:10:18.231Z,40.72
2018-07-04T04:11:18.252Z,40.81
2018-07-04T04:12:18.389Z,40.91
2018-07-04T04:13:18.567Z,40.81
2018-07-04T04:14:18.355Z,40.81
2018-07-04T04:15:18.409Z,40.81
2018-07-04T04:16:18.422Z,40.91
2018-07-04T04:17:18.501Z,40.81
2018-07-04T04:18:18.500Z,40.91
2018-07-04T04:19:18.773Z,41.01
2018-07-04T04:20:18.561Z,41.01
2018-07-04T04:21:18.595Z,40.81
2018-07-04T04:22:18.632Z,40.81
2018-07-04T04:23:18.673Z,41.01
2018-07-04T04:24:18.701Z,40.91
2018-07-04T04:25:18.980Z,40.81
2018-07-04T04:26:18.781Z,40.81
2018-07-04T04:27:18.813Z,40.81
2018-07-04T04:28:18.840Z,40.91
2018-07-04T04:29:18.871Z,40.72
2018-07-04T04:30:18.922Z,40.72
2018-07-04T04:31:19.193Z,40.91
2018-07-04T04:32:18.988Z,40.81
2018-07-04T04:33:19.010Z,40.91
2018-07-04T04:34:19.043Z,40.91
2018-07-04T04:35:19.090Z,40.91
2018-07-04T04:36:19.163Z,40.81
2018-07-04T04:37:19.402Z,40.81
2018-07-04T04:38:19.217Z,40.91
2018-07-04T04:39:19.281Z,40.81
2018-07-04T04:40:19.256Z,40.91
2018-07-04T04:41:19.285Z,40.91
2018-07-04T04:42:19.337Z,40.81
2018-07-04T04:43:19.712Z,40.81
2018-07-04T04:44:19.388Z,40.91
2018-07-04T04:45:19.429Z,40.81
2018-07-04T04:46:19.459Z,40.81
2018-07-04T04:47:19.518Z,40.72
2018-07-04T04:48:19.541Z,40.81
2018-07-04T04:49:19.564Z,40.81
2018-07-04T04:50:19.897Z,40.81
2018-07-04T04:51:19.635Z,40.81
2018-07-04T04:52:19.674Z,40.81
2018-07-04T04:53:19.719Z,40.81
2018-07-04T04:54:19.742Z,40.91
2018-07-04T04:55:19.790Z,40.81
2018-07-04T04:56:19.813Z,40.91
2018-07-04T04:57:20.231Z,40.91
2018-07-04T04:58:19.876Z,40.91
2018-07-04T04:59:19.912Z,40.81
2018-07-04T05:00:20.003Z,40.81
2018-07-04T05:01:19.979Z,40.72
2018-07-04T05:02:20.022Z,40.81
2018-07-04T05:03:20.051Z,40.91
2018-07-04T05:04:20.361Z,40.91
2018-07-04T05:05:20.117Z,41.10
2018-07-04T05:06:20.291Z,41.10
2018-07-04T05:07:20.188Z,40.62
2018-07-04T05:08:20.225Z,41.30
2018-07-04T05:09:20.309Z,41.10
2018-07-04T05:10:20.290Z,41.01
2018-07-04T05:11:20.628Z,41.13
2018-07-04T05:12:20.383Z,41.22
2018-07-04T05:13:20.468Z,41.13
2018-07-04T05:14:20.431Z,41.03
2018-07-04T05:15:20.490Z,41.13
2018-07-04T05:16:20.555Z,41.13
2018-07-04T05:17:20.537Z,40.91
2018-07-04T05:18:20.823Z,40.83
2018-07-04T05:19:20.604Z,40.73
2018-07-04T05:20:20.643Z,40.73
2018-07-04T05:21:20.675Z,41.13
2018-07-04T05:22:20.729Z,41.03
2018-07-04T05:23:20.752Z,41.13
2018-07-04T05:24:20.782Z,41.13
2018-07-04T05:25:21.121Z,41.13
2018-07-04T05:26:20.852Z,41.03
2018-07-04T05:27:20.937Z,41.03
2018-07-04T05:28:21.125Z,41.22
2018-07-04T05:29:20.955Z,41.03
2018-07-04T05:30:20.989Z,40.93
2018-07-04T05:31:21.045Z,40.83
2018-07-04T05:32:21.360Z,40.83
2018-07-04T05:33:21.095Z,41.03
2018-07-04T05:34:21.182Z,41.03
2018-07-04T05:35:21.182Z,40.93
2018-07-04T05:36:21.199Z,41.03
2018-07-04T05:37:21.238Z,40.93
2018-07-04T05:38:21.340Z,41.03
2018-07-04T05:39:21.611Z,41.03
2018-07-04T05:40:21.362Z,40.83
2018-07-04T05:41:21.378Z,40.83
2018-07-04T05:42:21.541Z,40.83
2018-07-04T05:43:21.589Z,40.83
2018-07-04T05:44:21.516Z,40.93
2018-07-04T05:45:21.513Z,40.93
2018-07-04T05:46:21.864Z,40.83
2018-07-04T05:47:21.585Z,40.64
2018-07-04T05:48:21.622Z,41.03
2018-07-04T05:49:21.820Z,40.93
2018-07-04T05:50:21.692Z,40.44
2018-07-04T05:51:21.735Z,40.44
2018-07-04T05:52:21.759Z,40.56
2018-07-04T05:53:22.049Z,40.54
2018-07-04T05:54:21.842Z,40.37
2018-07-04T05:55:21.867Z,40.47
2018-07-04T05:56:21.939Z,40.47
2018-07-04T05:57:21.954Z,40.37
2018-07-04T05:58:22.006Z,40.56
2018-07-04T05:59:22.011Z,40.56
2018-07-04T06:00:22.361Z,40.37
2018-07-04T06:01:22.102Z,40.47
2018-07-04T06:02:22.113Z,40.47
2018-07-04T06:03:22.150Z,40.37
2018-07-04T06:04:22.185Z,40.47
2018-07-04T06:05:22.417Z,40.37
2018-07-04T06:06:22.253Z,40.37
2018-07-04T06:07:22.615Z,40.08
2018-07-04T06:08:22.344Z,40.08
2018-07-04T06:09:22.361Z,39.88
2018-07-04T06:10:22.439Z,39.98
2018-07-04T06:11:22.570Z,39.98
2018-07-04T06:12:22.471Z,39.98
2018-07-04T06:13:22.826Z,40.08
2018-07-04T06:14:22.547Z,40.08
2018-07-04T06:15:22.622Z,39.98
2018-07-04T06:16:22.608Z,39.98
2018-07-04T06:17:22.647Z,39.88
2018-07-04T06:18:22.681Z,39.98
2018-07-04T06:19:22.965Z,39.98
2018-07-04T06:20:22.800Z,39.98
2018-07-04T06:21:22.785Z,39.88
2018-07-04T06:22:22.824Z,39.98
2018-07-04T06:23:22.856Z,40.08
2018-07-04T06:24:22.894Z,39.88
2018-07-04T06:25:23.230Z,39.98
2018-07-04T06:26:22.962Z,39.98
2018-07-04T06:27:23.005Z,39.78
2018-07-04T06:28:23.034Z,40.09
2018-07-04T06:29:23.095Z,39.59
2018-07-04T06:30:23.105Z,39.69
2018-07-04T06:31:23.390Z,39.69
2018-07-04T06:32:23.259Z,39.69
2018-07-04T06:33:23.220Z,39.78
2018-07-04T06:34:23.250Z,39.59
2018-07-04T06:35:23.283Z,39.59
2018-07-04T06:36:23.324Z,39.78
2018-07-04T06:37:23.354Z,39.59
2018-07-04T06:38:23.652Z,39.70
2018-07-04T06:39:23.425Z,39.69
2018-07-04T06:40:23.461Z,39.51
2018-07-04T06:41:23.505Z,39.59
2018-07-04T06:42:23.532Z,39.69
2018-07-04T06:43:23.595Z,39.61
2018-07-04T06:44:23.907Z,39.70
2018-07-04T06:45:23.642Z,39.69
2018-07-04T06:46:23.677Z,39.90
2018-07-04T06:47:23.710Z,39.70
2018-07-04T06:48:23.748Z,40.00
2018-07-04T06:49:23.782Z,39.49
2018-07-04T06:50:24.073Z,39.61
2018-07-04T06:51:23.865Z,39.61
2018-07-04T06:52:23.886Z,39.69
2018-07-04T06:53:23.951Z,39.80
2018-07-04T06:54:23.975Z,39.80
2018-07-04T06:55:23.997Z,39.80
2018-07-04T06:56:24.333Z,39.41
2018-07-04T06:57:24.081Z,39.90
2018-07-04T06:58:24.103Z,39.41
2018-07-04T06:59:24.146Z,39.39
2018-07-04T07:00:24.180Z,39.49
2018-07-04T07:01:24.209Z,39.51
2018-07-04T07:02:24.550Z,39.51
2018-07-04T07:03:24.297Z,39.51
2018-07-04T07:04:24.324Z,39.31
2018-07-04T07:05:24.351Z,39.41
2018-07-04T07:06:24.387Z,39.51
2018-07-04T07:07:24.425Z,39.51
2018-07-04T07:08:24.724Z,39.61
2018-07-04T07:09:24.494Z,39.51
2018-07-04T07:10:24.542Z,39.70
2018-07-04T07:11:24.568Z,39.61
2018-07-04T07:12:24.606Z,39.70
2018-07-04T07:13:24.655Z,39.41
2018-07-04T07:14:24.986Z,39.12
2018-07-04T07:15:24.717Z,39.31
2018-07-04T07:16:24.746Z,39.22
2018-07-04T07:17:24.779Z,39.22
2018-07-04T07:18:24.833Z,39.51
2018-07-04T07:19:24.857Z,39.22
2018-07-04T07:20:25.145Z,39.22
2018-07-04T07:21:24.974Z,39.12
2018-07-04T07:22:24.959Z,39.31
2018-07-04T07:23:24.993Z,39.03
2018-07-04T07:24:25.032Z,39.12
2018-07-04T07:25:25.086Z,39.12
2018-07-04T07:26:25.353Z,39.12
2018-07-04T07:27:25.141Z,39.12
2018-07-04T07:28:25.183Z,39.12
2018-07-04T07:29:25.230Z,39.03
2018-07-04T07:30:25.245Z,38.93
2018-07-04T07:31:25.283Z,39.03
2018-07-04T07:32:25.566Z,38.83
2018-07-04T07:33:25.365Z,39.03
2018-07-04T07:34:25.430Z,38.93
2018-07-04T07:35:25.427Z,39.12
2018-07-04T07:36:25.462Z,39.03
2018-07-04T07:37:25.497Z,39.03
2018-07-04T07:38:25.833Z,38.93
2018-07-04T07:39:25.570Z,38.93
2018-07-04T07:40:25.620Z,39.31
2018-07-04T07:41:25.641Z,38.93
2018-07-04T07:42:25.727Z,39.12
2018-07-04T07:43:25.717Z,38.93
2018-07-04T07:44:25.998Z,38.93
2018-07-04T07:45:25.784Z,38.93
2018-07-04T07:46:26.082Z,39.03
2018-07-04T07:47:26.308Z,39.03
2018-07-04T07:48:25.904Z,38.83
2018-07-04T07:49:25.936Z,38.93
2018-07-04T07:50:26.525Z,39.12
2018-07-04T07:51:26.159Z,39.03
2018-07-04T07:52:26.045Z,38.83
2018-07-04T07:53:26.076Z,38.93
2018-07-04T07:54:26.171Z,38.95
2018-07-04T07:55:26.141Z,38.85
2018-07-04T07:56:26.490Z,38.83
2018-07-04T07:57:26.236Z,38.95
2018-07-04T07:58:26.259Z,38.93
2018-07-04T07:59:26.438Z,38.83
2018-07-04T08:00:26.324Z,38.85
2018-07-04T08:01:26.366Z,38.85
2018-07-04T08:02:26.700Z,38.85
2018-07-04T08:03:26.432Z,38.95
2018-07-04T08:04:26.489Z,38.85
2018-07-04T08:05:26.509Z,39.04
2018-07-04T08:06:26.550Z,38.95
2018-07-04T08:07:26.575Z,38.95
2018-07-04T08:08:26.858Z,38.95
2018-07-04T08:09:26.652Z,39.03
2018-07-04T08:10:26.690Z,38.95
2018-07-04T08:11:26.723Z,38.95
2018-07-04T08:12:26.856Z,39.04
2018-07-04T08:13:26.913Z,38.85
2018-07-04T08:14:27.167Z,38.85
2018-07-04T08:15:26.880Z,39.04
2018-07-04T08:16:26.903Z,38.95
2018-07-04T08:17:26.942Z,39.04
2018-07-04T08:18:26.970Z,38.95
2018-07-04T08:19:27.005Z,38.85
2018-07-04T08:20:27.349Z,39.04
2018-07-04T08:21:27.077Z,39.14
2018-07-04T08:22:27.122Z,39.14
2018-07-04T08:23:27.149Z,39.14
2018-07-04T08:24:27.187Z,39.04
2018-07-04T08:25:27.223Z,39.14
2018-07-04T08:26:27.635Z,38.95
2018-07-04T08:27:27.299Z,39.04
2018-07-04T08:28:27.342Z,39.14
2018-07-04T08:29:27.376Z,38.95
2018-07-04T08:30:27.409Z,38.95
2018-07-04T08:31:27.452Z,38.95
2018-07-04T08:32:27.812Z,38.95
2018-07-04T08:33:27.591Z,38.95
2018-07-04T08:34:27.543Z,38.95
2018-07-04T08:35:27.598Z,38.85
2018-07-04T08:36:27.632Z,38.95
2018-07-04T08:37:27.658Z,38.85
2018-07-04T08:38:27.939Z,38.95
2018-07-04T08:39:27.729Z,38.95
2018-07-04T08:40:27.828Z,38.95
2018-07-04T08:41:27.944Z,38.85
2018-07-04T08:42:27.844Z,38.85
2018-07-04T08:43:27.922Z,39.04
2018-07-04T08:44:28.167Z,38.95
2018-07-04T08:45:27.945Z,38.85
2018-07-04T08:46:27.976Z,38.95
2018-07-04T08:47:28.022Z,39.04
2018-07-04T08:48:28.101Z,38.95
2018-07-04T08:49:28.088Z,39.04
2018-07-04T08:50:28.377Z,39.04
2018-07-04T08:51:28.160Z,38.95
2018-07-04T08:52:28.198Z,38.95
2018-07-04T08:53:28.280Z,38.85
2018-07-04T08:54:28.277Z,39.04
2018-07-04T08:55:28.303Z,38.95
2018-07-04T08:56:28.589Z,38.85
2018-07-04T08:57:28.379Z,39.04
2018-07-04T08:58:28.460Z,38.85
2018-07-04T08:59:28.446Z,38.95
2018-07-04T09:00:28.485Z,38.85
2018-07-04T09:01:28.519Z,38.85
2018-07-04T09:02:28.808Z,39.14
2018-07-04T09:03:28.591Z,38.95
2018-07-04T09:04:28.627Z,39.24
2018-07-04T09:05:28.687Z,39.24
2018-07-04T09:06:28.696Z,38.95
2018-07-04T09:07:28.735Z,38.85
2018-07-04T09:08:29.077Z,38.95
2018-07-04T09:09:28.813Z,39.04
2018-07-04T09:10:28.844Z,39.04
2018-07-04T09:11:28.946Z,39.14
2018-07-04T09:12:28.915Z,39.14
2018-07-04T09:13:28.953Z,38.95
2018-07-04T09:14:29.236Z,39.04
2018-07-04T09:15:29.028Z,38.95
2018-07-04T09:16:29.060Z,38.95
2018-07-04T09:17:29.105Z,38.95
2018-07-04T09:18:29.293Z,38.85
2018-07-04T09:19:29.171Z,38.85
2018-07-04T09:20:29.539Z,38.85
2018-07-04T09:21:29.238Z,38.85
2018-07-04T09:22:29.276Z,39.04
2018-07-04T09:23:29.316Z,38.85
2018-07-04T09:24:29.392Z,38.95
2018-07-04T09:25:29.395Z,38.95
2018-07-04T09:26:29.667Z,39.04
2018-07-04T09:27:29.468Z,38.85
2018-07-04T09:28:29.489Z,38.75
2018-07-04T09:29:29.581Z,38.85
2018-07-04T09:30:29.562Z,38.75
2018-07-04T09:31:29.597Z,38.85
2018-07-04T09:32:29.937Z,38.95
2018-07-04T09:33:29.674Z,38.95
2018-07-04T09:34:29.710Z,38.95
2018-07-04T09:35:29.743Z,38.95
2018-07-04T09:36:29.779Z,39.04
2018-07-04T09:37:29.817Z,38.95
2018-07-04T09:38:30.217Z,38.85
2018-07-04T09:39:30.005Z,38.95
2018-07-04T09:40:29.934Z,39.04
2018-07-04T09:41:29.965Z,39.14
2018-07-04T09:42:30.000Z,38.95
2018-07-04T09:43:30.039Z,39.04
2018-07-04T09:44:30.367Z,39.04
2018-07-04T09:45:30.104Z,39.14
2018-07-04T09:46:30.154Z,38.95
2018-07-04T09:47:30.180Z,39.04
2018-07-04T09:48:30.227Z,38.95
2018-07-04T09:49:30.299Z,38.95
2018-07-04T09:50:30.605Z,38.95
2018-07-04T09:51:30.326Z,38.95
2018-07-04T09:52:30.357Z,38.95
2018-07-04T09:53:30.419Z,38.95
2018-07-04T09:54:30.427Z,39.04
2018-07-04T09:55:30.466Z,39.04
2018-07-04T09:56:30.750Z,39.04
2018-07-04T09:57:30.538Z,38.95
2018-07-04T09:58:30.612Z,39.04
2018-07-04T09:59:30.609Z,38.95
2018-07-04T10:00:30.662Z,39.14
2018-07-04T10:01:30.688Z,39.04
2018-07-04T10:02:30.974Z,38.95
2018-07-04T10:03:30.759Z,38.85
2018-07-04T10:04:30.789Z,38.85
2018-07-04T10:05:30.824Z,38.85
2018-07-04T10:06:30.886Z,38.85
2018-07-04T10:07:30.907Z,38.75
2018-07-04T10:08:31.187Z,39.04
2018-07-04T10:09:30.970Z,39.04
2018-07-04T10:10:31.003Z,38.95
2018-07-04T10:11:31.041Z,38.85
2018-07-04T10:12:31.108Z,38.85
2018-07-04T10:13:31.113Z,38.95
2018-07-04T10:14:31.448Z,39.14
2018-07-04T10:15:31.186Z,38.95
2018-07-04T10:16:31.234Z,39.04
2018-07-04T10:17:31.259Z,38.95
2018-07-04T10:18:31.294Z,39.04
2018-07-04T10:19:31.356Z,39.14
2018-07-04T10:20:31.616Z,39.04
2018-07-04T10:21:31.413Z,38.95
2018-07-04T10:22:31.458Z,39.16
2018-07-04T10:23:31.478Z,39.06
2018-07-04T10:24:31.571Z,38.95
2018-07-04T10:25:31.550Z,39.04
2018-07-04T10:26:31.887Z,38.95
2018-07-04T10:27:31.631Z,38.95
2018-07-04T10:28:31.662Z,38.56
2018-07-04T10:29:31.694Z,38.95
2018-07-04T10:30:31.738Z,39.04
2018-07-04T10:31:31.763Z,38.95
2018-07-04T10:32:32.102Z,38.95
2018-07-04T10:33:31.841Z,38.95
2018-07-04T10:34:31.921Z,39.04
2018-07-04T10:35:31.928Z,39.06
2018-07-04T10:36:31.949Z,39.04
2018-07-04T10:37:32.003Z,39.06
2018-07-04T10:38:32.317Z,39.04
2018-07-04T10:39:32.054Z,39.14
2018-07-04T10:40:32.089Z,39.24
2018-07-04T10:41:32.127Z,39.26
2018-07-04T10:42:32.207Z,39.26
2018-07-04T10:43:32.228Z,38.77
2018-07-04T10:44:32.490Z,38.67
2018-07-04T10:45:32.302Z,38.57
2018-07-04T10:46:32.309Z,38.67
2018-07-04T10:47:32.350Z,38.67
2018-07-04T10:48:32.394Z,38.57
2018-07-04T10:49:32.425Z,38.57
2018-07-04T10:50:32.729Z,38.48
2018-07-04T10:51:32.512Z,38.57
2018-07-04T10:52:32.534Z,38.57
2018-07-04T10:53:32.565Z,38.48
2018-07-04T10:54:32.601Z,38.48
2018-07-04T10:55:32.634Z,38.57
2018-07-04T10:56:32.931Z,38.38
2018-07-04T10:57:32.706Z,38.48
2018-07-04T10:58:32.791Z,38.57
2018-07-04T10:59:32.785Z,38.57
2018-07-04T11:00:32.818Z,38.57
2018-07-04T11:01:32.854Z,38.57
2018-07-04T11:02:33.138Z,38.57
2018-07-04T11:03:32.925Z,38.48
2018-07-04T11:04:32.996Z,38.38
2018-07-04T11:05:32.996Z,38.57
2018-07-04T11:06:33.038Z,38.57
2018-07-04T11:07:33.086Z,38.57
2018-07-04T11:08:33.421Z,38.57
2018-07-04T11:09:33.152Z,38.57
2018-07-04T11:10:33.182Z,38.67
2018-07-04T11:11:33.218Z,38.38
2018-07-04T11:12:33.256Z,38.38
2018-07-04T11:13:33.289Z,38.57
2018-07-04T11:14:33.613Z,38.57
2018-07-04T11:15:33.360Z,38.77
2018-07-04T11:16:33.397Z,38.87
2018-07-04T11:17:33.432Z,38.67
2018-07-04T11:18:33.484Z,39.26
2018-07-04T11:19:33.507Z,38.77
2018-07-04T11:20:33.794Z,39.16
2018-07-04T11:21:33.578Z,38.87
2018-07-04T11:22:33.636Z,38.57
2018-07-04T11:23:33.666Z,39.26
2018-07-04T11:24:33.690Z,38.57
2018-07-04T11:25:33.773Z,38.48
2018-07-04T11:26:34.013Z,39.26
2018-07-04T11:27:33.797Z,38.67
2018-07-04T11:28:33.919Z,38.57
2018-07-04T11:29:33.868Z,38.57
2018-07-04T11:30:33.905Z,38.48
2018-07-04T11:31:33.966Z,38.57
2018-07-04T11:32:34.226Z,38.48
2018-07-04T11:33:34.016Z,38.48
2018-07-04T11:34:34.047Z,38.48
2018-07-04T11:35:34.084Z,38.48
2018-07-04T11:36:34.123Z,38.67
2018-07-04T11:37:34.159Z,38.57
2018-07-04T11:38:34.444Z,38.77
2018-07-04T11:39:34.231Z,38.48
2018-07-04T11:40:34.270Z,38.48
2018-07-04T11:41:34.322Z,38.48
2018-07-04T11:42:34.351Z,38.48
2018-07-04T11:43:34.375Z,38.48
2018-07-04T11:44:34.666Z,38.57
2018-07-04T11:45:34.466Z,38.38
2018-07-04T11:46:34.489Z,38.57
2018-07-04T11:47:34.523Z,38.67
2018-07-04T11:48:34.563Z,38.48
2018-07-04T11:49:34.615Z,38.57
2018-07-04T11:50:34.885Z,38.48
2018-07-04T11:51:34.702Z,38.28
2018-07-04T11:52:34.705Z,38.28
2018-07-04T11:53:34.743Z,38.28
2018-07-04T11:54:34.811Z,38.28
2018-07-04T11:55:34.821Z,38.28
2018-07-04T11:56:35.147Z,38.28
2018-07-04T11:57:34.917Z,38.48
2018-07-04T11:58:34.952Z,38.38
2018-07-04T11:59:34.967Z,38.38
2018-07-04T12:00:35.016Z,38.48
2018-07-04T12:01:35.032Z,38.48
2018-07-04T12:02:35.323Z,38.49
2018-07-04T12:03:35.105Z,38.57
2018-07-04T12:04:35.143Z,38.49
2018-07-04T12:05:35.184Z,38.28
2018-07-04T12:06:35.215Z,38.38
2018-07-04T12:07:35.268Z,38.18
2018-07-04T12:08:35.591Z,38.18
2018-07-04T12:09:35.326Z,38.38
2018-07-04T12:10:35.372Z,38.28
2018-07-04T12:11:35.404Z,38.28
2018-07-04T12:12:35.434Z,38.28
2018-07-04T12:13:35.479Z,38.28
2018-07-04T12:14:35.763Z,38.49
2018-07-04T12:15:35.558Z,38.30
2018-07-04T12:16:35.580Z,38.57
2018-07-04T12:17:35.619Z,38.38
2018-07-04T12:18:35.655Z,38.38
2018-07-04T12:19:35.691Z,38.38
2018-07-04T12:20:35.977Z,38.48
2018-07-04T12:21:35.762Z,38.48
2018-07-04T12:22:35.805Z,38.48
2018-07-04T12:23:35.834Z,38.57
2018-07-04T12:24:35.876Z,38.48
2018-07-04T12:25:35.958Z,38.57
2018-07-04T12:26:36.269Z,38.28
2018-07-04T12:27:35.989Z,38.28
2018-07-04T12:28:36.038Z,38.57
2018-07-04T12:29:36.066Z,38.38
2018-07-04T12:30:36.090Z,38.38
2018-07-04T12:31:36.137Z,38.48
2018-07-04T12:32:36.467Z,38.57
2018-07-04T12:33:36.213Z,38.48
2018-07-04T12:34:36.237Z,38.57
2018-07-04T12:35:36.280Z,38.57
2018-07-04T12:36:36.312Z,38.67
2018-07-04T12:37:36.347Z,38.77
2018-07-04T12:38:36.686Z,38.87
2018-07-04T12:39:36.419Z,38.87
2018-07-04T12:40:36.537Z,38.96
2018-07-04T12:41:36.502Z,39.26
2018-07-04T12:42:36.534Z,38.87
2018-07-04T12:43:36.668Z,38.87
2018-07-04T12:44:36.903Z,39.26
2018-07-04T12:45:39.546Z,39.06
2018-07-04T12:46:36.673Z,39.06
2018-07-04T12:47:36.712Z,39.16
2018-07-04T12:48:36.749Z,39.06
2018-07-04T12:49:36.817Z,39.06
2018-07-04T12:50:37.067Z,39.06
2018-07-04T12:51:36.854Z,38.96
2018-07-04T12:52:36.889Z,39.16
2018-07-04T12:53:36.924Z,38.96